createdAt,value
2022-08-20T00:00:46.165Z,21.33
2022-08-20T00:01:46.237Z,21.27
2022-08-20T00:02:46.164Z,21.15
2022-08-20T00:03:50.234Z,21.27
2022-08-20T00:04:47.120Z,21.17
2022-08-20T00:05:46.105Z,21.30
2022-08-20T00:06:46.098Z,21.33
2022-08-20T00:07:46.099Z,21.20
2022-08-20T00:08:46.094Z,21.20
2022-08-20T00:09:46.061Z,21.32
2022-08-20T00:10:47.662Z,21.18
2022-08-20T00:11:46.055Z,21.21
2022-08-20T00:12:46.043Z,21.27
2022-08-20T00:13:46.032Z,21.17
2022-08-20T00:14:46.008Z,21.20
2022-08-20T00:15:46.006Z,21.25
2022-08-20T00:16:45.990Z,21.27
2022-08-20T00:17:45.973Z,21.24
2022-08-20T00:18:45.987Z,21.22
2022-08-20T00:19:45.953Z,21.20
2022-08-20T00:20:45.945Z,21.18
2022-08-20T00:21:45.935Z,21.15
2022-08-20T00:22:45.925Z,21.14
2022-08-20T00:23:45.927Z,21.12
2022-08-20T00:24:45.904Z,21.18
2022-08-20T00:25:45.899Z,21.14
2022-08-20T00:26:51.777Z,21.09
2022-08-20T00:27:46.864Z,21.09
2022-08-20T00:28:45.860Z,21.15
2022-08-20T00:29:45.868Z,21.07
2022-08-20T00:30:45.835Z,21.09
2022-08-20T00:31:45.825Z,21.11
2022-08-20T00:32:45.809Z,20.97
2022-08-20T00:33:45.819Z,21.02
2022-08-20T00:34:45.799Z,21.11
2022-08-20T00:35:45.797Z,21.05
2022-08-20T00:36:45.779Z,21.00
2022-08-20T00:37:45.753Z,21.11
2022-08-20T00:38:45.742Z,21.11
2022-08-20T00:39:45.778Z,21.02
2022-08-20T00:40:45.730Z,21.06
2022-08-20T00:41:45.724Z,21.05
2022-08-20T00:42:45.702Z,21.02
2022-08-20T00:43:45.690Z,21.11
2022-08-20T00:44:45.677Z,21.11
2022-08-20T00:45:45.687Z,21.05
2022-08-20T00:46:45.659Z,20.99
2022-08-20T00:47:51.401Z,20.99
2022-08-20T00:48:45.636Z,21.00
2022-08-20T00:49:45.623Z,20.99
2022-08-20T00:50:45.623Z,20.99
2022-08-20T00:51:45.604Z,20.96
2022-08-20T00:52:49.857Z,21.03
2022-08-20T00:53:45.582Z,20.93
2022-08-20T00:54:45.566Z,20.97
2022-08-20T00:55:45.582Z,21.00
2022-08-20T00:56:45.557Z,20.93
2022-08-20T00:57:59.960Z,21.03
2022-08-20T00:58:46.531Z,21.00
2022-08-20T00:59:45.513Z,20.97
2022-08-20T01:00:45.602Z,21.00
2022-08-20T01:01:56.250Z,20.95
2022-08-20T01:02:46.487Z,21.00
2022-08-20T01:03:45.495Z,20.88
2022-08-20T01:04:45.460Z,20.82
2022-08-20T01:05:45.452Z,20.90
2022-08-20T01:06:45.458Z,20.88
2022-08-20T01:07:45.425Z,20.92
2022-08-20T01:08:45.413Z,20.85
2022-08-20T01:09:58.038Z,20.87
2022-08-20T01:10:46.391Z,20.84
2022-08-20T01:11:45.399Z,20.90
2022-08-20T01:12:45.368Z,20.90
2022-08-20T01:13:45.370Z,20.85
2022-08-20T01:14:45.367Z,20.82
2022-08-20T01:15:45.339Z,20.90
2022-08-20T01:16:45.352Z,21.00
2022-08-20T01:17:45.314Z,20.97
2022-08-20T01:18:45.303Z,20.82
2022-08-20T01:19:45.297Z,20.96
2022-08-20T01:20:45.292Z,20.84
2022-08-20T01:21:49.308Z,20.84
2022-08-20T01:22:45.274Z,20.88
2022-08-20T01:23:45.251Z,20.85
2022-08-20T01:24:45.240Z,20.88
2022-08-20T01:25:45.234Z,20.84
2022-08-20T01:26:45.232Z,20.80
2022-08-20T01:27:45.205Z,20.81
2022-08-20T01:28:45.191Z,20.77
2022-08-20T01:29:45.183Z,20.78
2022-08-20T01:30:45.168Z,20.70
2022-08-20T01:31:45.173Z,20.69
2022-08-20T01:32:45.159Z,20.72
2022-08-20T01:33:45.137Z,20.78
2022-08-20T01:34:45.122Z,20.74
2022-08-20T01:35:45.118Z,20.66
2022-08-20T01:36:46.466Z,20.77
2022-08-20T01:37:45.112Z,20.81
2022-08-20T01:38:54.315Z,20.77
2022-08-20T01:39:46.134Z,20.77
2022-08-20T01:40:45.058Z,20.74
2022-08-20T01:41:45.047Z,20.77
2022-08-20T01:42:58.581Z,20.67
2022-08-20T01:43:46.051Z,20.74
2022-08-20T01:44:45.015Z,20.70
2022-08-20T01:45:45.005Z,20.77
2022-08-20T01:46:44.990Z,20.78
2022-08-20T01:47:45.000Z,20.84
2022-08-20T01:48:44.975Z,20.77
2022-08-20T01:49:44.967Z,20.67
2022-08-20T01:50:44.952Z,20.81
2022-08-20T01:51:44.937Z,20.80
2022-08-20T01:52:44.926Z,20.78
2022-08-20T01:53:44.928Z,20.74
2022-08-20T01:54:44.907Z,20.70
2022-08-20T01:55:44.900Z,20.77
2022-08-20T01:56:44.885Z,20.66
2022-08-20T01:57:44.881Z,20.62
2022-08-20T01:58:44.878Z,20.59
2022-08-20T01:59:44.860Z,20.59
2022-08-20T02:00:44.842Z,20.59
2022-08-20T02:01:46.269Z,20.66
2022-08-20T02:02:44.837Z,20.59
2022-08-20T02:03:44.934Z,20.58
2022-08-20T02:04:44.799Z,20.65
2022-08-20T02:05:44.808Z,20.70
2022-08-20T02:06:56.253Z,20.66
2022-08-20T02:07:45.773Z,20.72
2022-08-20T02:08:44.765Z,20.70
2022-08-20T02:09:44.744Z,20.66
2022-08-20T02:10:44.734Z,20.65
2022-08-20T02:11:44.725Z,20.65
2022-08-20T02:12:44.739Z,20.62
2022-08-20T02:13:44.712Z,20.70
2022-08-20T02:14:44.687Z,20.66
2022-08-20T02:15:44.688Z,20.74
2022-08-20T02:16:44.660Z,20.75
2022-08-20T02:17:45.666Z,20.74
2022-08-20T02:18:44.675Z,20.72
2022-08-20T02:19:44.631Z,20.74
2022-08-20T02:20:44.620Z,20.74
2022-08-20T02:21:44.610Z,20.70
2022-08-20T02:22:49.205Z,20.74
2022-08-20T02:23:45.600Z,20.72
2022-08-20T02:24:44.575Z,20.69
2022-08-20T02:25:44.580Z,20.69
2022-08-20T02:26:44.563Z,20.74
2022-08-20T02:27:44.562Z,20.74
2022-08-20T02:28:44.534Z,20.72
2022-08-20T02:29:44.528Z,20.75
2022-08-20T02:30:44.513Z,20.75
2022-08-20T02:32:24.375Z,20.74
2022-08-20T02:32:45.585Z,20.74
2022-08-20T02:34:21.689Z,20.75
2022-08-20T02:34:45.462Z,20.75
2022-08-20T02:35:44.454Z,20.74
2022-08-20T02:36:44.445Z,20.72
2022-08-20T02:37:44.437Z,20.67
2022-08-20T02:38:44.436Z,20.65
2022-08-20T02:39:44.451Z,20.66
2022-08-20T02:40:44.403Z,20.77
2022-08-20T02:41:44.389Z,20.66
2022-08-20T02:42:44.460Z,20.69
2022-08-20T02:43:44.381Z,20.65
2022-08-20T02:44:44.371Z,20.66
2022-08-20T02:45:44.355Z,20.67
2022-08-20T02:46:44.335Z,20.56
2022-08-20T02:47:44.326Z,20.59
2022-08-20T02:48:44.311Z,20.63
2022-08-20T02:49:44.303Z,20.65
2022-08-20T02:50:44.307Z,20.63
2022-08-20T02:51:44.282Z,20.66
2022-08-20T02:52:48.824Z,20.58
2022-08-20T02:53:45.288Z,20.55
2022-08-20T02:54:44.246Z,20.60
2022-08-20T02:55:44.235Z,20.66
2022-08-20T02:56:44.220Z,20.60
2022-08-20T02:57:44.216Z,20.51
2022-08-20T02:58:44.204Z,20.48
2022-08-20T02:59:44.205Z,20.48
2022-08-20T03:00:44.182Z,20.48
2022-08-20T03:01:44.189Z,20.39
2022-08-20T03:02:44.157Z,20.40
2022-08-20T03:03:44.151Z,20.43
2022-08-20T03:04:44.147Z,20.40
2022-08-20T03:05:44.129Z,20.39
2022-08-20T03:06:44.122Z,20.43
2022-08-20T03:07:44.104Z,20.50
2022-08-20T03:08:44.092Z,20.40
2022-08-20T03:09:44.095Z,20.48
2022-08-20T03:10:44.070Z,20.50
2022-08-20T03:11:44.062Z,20.47
2022-08-20T03:12:44.044Z,20.51
2022-08-20T03:13:44.052Z,20.48
2022-08-20T03:14:44.056Z,20.48
2022-08-20T03:15:44.016Z,20.55
2022-08-20T03:16:44.045Z,20.52
2022-08-20T03:17:44.001Z,20.51
2022-08-20T03:18:43.989Z,20.47
2022-08-20T03:19:43.978Z,20.51
2022-08-20T03:20:43.993Z,20.52
2022-08-20T03:21:43.973Z,20.50
2022-08-20T03:22:43.936Z,20.52
2022-08-20T03:23:43.939Z,20.48
2022-08-20T03:24:43.914Z,20.44
2022-08-20T03:25:43.935Z,20.44
2022-08-20T03:26:43.902Z,20.44
2022-08-20T03:27:43.887Z,20.47
2022-08-20T03:28:43.874Z,20.40
2022-08-20T03:29:43.859Z,20.51
2022-08-20T03:30:43.872Z,20.44
2022-08-20T03:31:43.839Z,20.41
2022-08-20T03:32:43.837Z,20.29
2022-08-20T03:33:52.626Z,20.28
2022-08-20T03:34:44.801Z,20.39
2022-08-20T03:35:43.797Z,20.25
2022-08-20T03:36:43.793Z,20.36
2022-08-20T03:37:48.213Z,20.40
2022-08-20T03:38:43.758Z,20.40
2022-08-20T03:39:43.834Z,20.40
2022-08-20T03:40:43.738Z,20.41
2022-08-20T03:41:43.771Z,20.37
2022-08-20T03:42:43.719Z,20.39
2022-08-20T03:43:43.719Z,20.40
2022-08-20T03:44:43.720Z,20.47
2022-08-20T03:45:43.689Z,20.47
2022-08-20T03:46:43.682Z,20.44
2022-08-20T03:47:43.666Z,20.51
2022-08-20T03:48:43.649Z,20.47
2022-08-20T03:49:43.643Z,20.44
2022-08-20T03:50:43.625Z,20.51
2022-08-20T03:51:57.645Z,20.44
2022-08-20T03:52:44.604Z,20.44
2022-08-20T03:53:43.608Z,20.41
2022-08-20T03:54:43.583Z,20.41
2022-08-20T03:55:43.589Z,20.34
2022-08-20T03:56:43.571Z,20.37
2022-08-20T03:57:43.556Z,20.32
2022-08-20T03:58:43.550Z,20.41
2022-08-20T03:59:43.530Z,20.41
2022-08-20T04:00:43.518Z,20.36
2022-08-20T04:01:44.991Z,20.37
2022-08-20T04:02:43.494Z,20.34
2022-08-20T04:03:43.488Z,20.36
2022-08-20T04:04:43.476Z,20.40
2022-08-20T04:05:43.463Z,20.40
2022-08-20T04:06:43.469Z,20.40
2022-08-20T04:07:43.449Z,20.37
2022-08-20T04:08:43.432Z,20.43
2022-08-20T04:09:43.418Z,20.37
2022-08-20T04:10:43.411Z,20.41
2022-08-20T04:11:43.420Z,20.39
2022-08-20T04:12:52.725Z,20.44
2022-08-20T04:13:44.375Z,20.37
2022-08-20T04:14:43.363Z,20.29
2022-08-20T04:15:43.357Z,20.31
2022-08-20T04:16:43.360Z,20.28
2022-08-20T04:17:43.339Z,20.28
2022-08-20T04:18:43.339Z,20.31
2022-08-20T04:19:44.310Z,20.31
2022-08-20T04:20:43.305Z,20.28
2022-08-20T04:21:43.296Z,20.32
2022-08-20T04:22:43.277Z,20.19
2022-08-20T04:23:44.283Z,20.31
2022-08-20T04:24:43.290Z,20.26
2022-08-20T04:25:43.420Z,20.25
2022-08-20T04:26:43.266Z,20.21
2022-08-20T04:27:43.225Z,20.29
2022-08-20T04:28:43.214Z,20.21
2022-08-20T04:29:43.197Z,20.16
2022-08-20T04:30:43.361Z,20.14
2022-08-20T04:31:43.183Z,20.24
2022-08-20T04:32:43.173Z,20.21
2022-08-20T04:33:43.160Z,20.29
2022-08-20T04:34:43.144Z,20.18
2022-08-20T04:35:43.148Z,20.31
2022-08-20T04:36:43.146Z,20.31
2022-08-20T04:37:43.115Z,20.31
2022-08-20T04:38:47.816Z,20.21
2022-08-20T04:39:44.150Z,20.25
2022-08-20T04:40:43.077Z,20.36
2022-08-20T04:41:43.092Z,20.26
2022-08-20T04:42:43.557Z,20.34
2022-08-20T04:43:43.046Z,20.26
2022-08-20T04:44:43.036Z,20.28
2022-08-20T04:45:43.025Z,20.29
2022-08-20T04:46:43.023Z,20.34
2022-08-20T04:47:43.009Z,20.31
2022-08-20T04:48:42.990Z,20.26
2022-08-20T04:49:43.981Z,20.28
2022-08-20T04:50:42.967Z,20.31
2022-08-20T04:51:42.970Z,20.29
2022-08-20T04:52:42.940Z,20.34
2022-08-20T04:53:43.172Z,20.28
2022-08-20T04:54:42.921Z,20.32
2022-08-20T04:55:42.933Z,20.31
2022-08-20T04:56:42.916Z,20.22
2022-08-20T04:57:42.890Z,20.28
2022-08-20T04:58:42.876Z,20.31
2022-08-20T04:59:42.900Z,20.31
2022-08-20T05:00:42.853Z,20.28
2022-08-20T05:01:42.862Z,20.31
2022-08-20T05:02:42.991Z,20.39
2022-08-20T05:03:42.826Z,20.37
2022-08-20T05:04:42.809Z,20.40
2022-08-20T05:05:42.818Z,20.39
2022-08-20T05:06:42.801Z,20.43
2022-08-20T05:07:42.783Z,20.41
2022-08-20T05:08:42.777Z,20.43
2022-08-20T05:09:44.026Z,20.29
2022-08-20T05:10:42.746Z,20.37
2022-08-20T05:11:42.766Z,20.25
2022-08-20T05:12:42.730Z,20.29
2022-08-20T05:13:43.734Z,20.37
2022-08-20T05:14:42.733Z,20.36
2022-08-20T05:15:42.695Z,20.32
2022-08-20T05:16:42.698Z,20.26
2022-08-20T05:17:42.673Z,20.31
2022-08-20T05:18:42.673Z,20.25
2022-08-20T05:19:42.658Z,20.31
2022-08-20T05:20:42.647Z,20.24
2022-08-20T05:21:42.623Z,20.31
2022-08-20T05:22:42.647Z,20.36
2022-08-20T05:23:42.628Z,20.29
2022-08-20T05:24:42.599Z,20.31
2022-08-20T05:25:42.581Z,20.31
2022-08-20T05:26:42.575Z,20.25
2022-08-20T05:27:46.028Z,20.32
2022-08-20T05:28:54.312Z,20.31
2022-08-20T05:29:43.533Z,20.34
2022-08-20T05:30:42.526Z,20.26
2022-08-20T05:31:42.514Z,20.22
2022-08-20T05:32:44.825Z,20.22
2022-08-20T05:33:42.526Z,20.07
2022-08-20T05:34:43.495Z,20.10
2022-08-20T05:35:42.469Z,20.04
2022-08-20T05:36:42.482Z,20.25
2022-08-20T05:37:42.449Z,20.10
2022-08-20T05:38:42.456Z,20.16
2022-08-20T05:39:43.505Z,20.11
2022-08-20T05:40:42.416Z,20.11
2022-08-20T05:41:42.431Z,20.13
2022-08-20T05:42:42.404Z,20.21
2022-08-20T05:43:42.385Z,20.21
2022-08-20T05:44:42.396Z,20.25
2022-08-20T05:45:42.364Z,20.31
2022-08-20T05:46:42.361Z,20.32
2022-08-20T05:47:42.794Z,20.32
2022-08-20T05:48:42.339Z,20.32
2022-08-20T05:49:42.349Z,20.41
2022-08-20T05:50:42.307Z,20.48
2022-08-20T05:51:42.323Z,20.50
2022-08-20T05:52:42.287Z,20.50
2022-08-20T05:53:42.271Z,20.56
2022-08-20T05:54:42.288Z,20.51
2022-08-20T05:55:42.255Z,20.50
2022-08-20T05:56:42.247Z,20.51
2022-08-20T05:57:42.230Z,20.60
2022-08-20T05:58:42.219Z,20.60
2022-08-20T05:59:42.209Z,20.63
2022-08-20T06:00:42.236Z,20.59
2022-08-20T06:01:42.356Z,20.58
2022-08-20T06:02:42.177Z,20.60
2022-08-20T06:03:42.164Z,20.60
2022-08-20T06:04:42.164Z,20.56
2022-08-20T06:05:42.152Z,20.59
2022-08-20T06:06:45.924Z,20.52
2022-08-20T06:07:42.138Z,20.62
2022-08-20T06:08:42.121Z,20.58
2022-08-20T06:09:44.411Z,20.58
2022-08-20T06:10:42.651Z,20.58
2022-08-20T06:11:42.081Z,20.58
2022-08-20T06:12:42.067Z,20.56
2022-08-20T06:13:42.071Z,20.56
2022-08-20T06:14:42.063Z,20.56
2022-08-20T06:15:42.036Z,20.56
2022-08-20T06:16:56.314Z,20.52
2022-08-20T06:17:43.011Z,20.60
2022-08-20T06:18:42.002Z,20.59
2022-08-20T06:19:44.457Z,20.48
2022-08-20T06:20:41.986Z,20.50
2022-08-20T06:21:41.965Z,20.48
2022-08-20T06:22:41.959Z,20.48
2022-08-20T06:23:58.591Z,20.48
2022-08-20T06:24:42.954Z,20.55
2022-08-20T06:25:41.956Z,20.52
2022-08-20T06:26:41.936Z,20.55
2022-08-20T06:27:41.952Z,20.59
2022-08-20T06:28:41.888Z,20.56
2022-08-20T06:29:41.885Z,20.60
2022-08-20T06:30:41.899Z,20.60
2022-08-20T06:31:41.871Z,20.67
2022-08-20T06:32:41.848Z,20.67
2022-08-20T06:33:41.829Z,20.75
2022-08-20T06:34:50.438Z,20.75
2022-08-20T06:35:41.817Z,20.87
2022-08-20T06:36:41.819Z,21.03
2022-08-20T06:37:41.831Z,20.97
2022-08-20T06:38:41.812Z,20.97
2022-08-20T06:39:41.812Z,20.95
2022-08-20T06:40:41.763Z,21.05
2022-08-20T06:41:41.787Z,20.99
2022-08-20T06:42:47.229Z,21.02
2022-08-20T06:43:42.721Z,20.99
2022-08-20T06:44:41.725Z,21.12
2022-08-20T06:45:41.709Z,21.07
2022-08-20T06:46:41.709Z,21.15
2022-08-20T06:47:41.705Z,21.25
2022-08-20T06:48:41.673Z,21.18
2022-08-20T06:49:41.681Z,21.33
2022-08-20T06:50:47.456Z,21.39
2022-08-20T06:51:42.636Z,21.40
2022-08-20T06:52:52.996Z,21.39
2022-08-20T06:53:42.614Z,21.36
2022-08-20T06:54:41.619Z,21.20
2022-08-20T06:55:41.587Z,21.32
2022-08-20T06:56:42.598Z,21.22
2022-08-20T06:57:41.572Z,21.22
2022-08-20T06:58:41.579Z,21.22
2022-08-20T06:59:41.555Z,21.20
2022-08-20T07:00:41.601Z,21.14
2022-08-20T07:01:41.563Z,21.22
2022-08-20T07:02:41.537Z,21.21
2022-08-20T07:03:42.002Z,21.29
2022-08-20T07:04:41.496Z,21.25
2022-08-20T07:05:41.483Z,21.32
2022-08-20T07:06:41.477Z,21.33
2022-08-20T07:07:41.491Z,21.32
2022-08-20T07:08:41.548Z,21.25
2022-08-20T07:09:41.435Z,21.29
2022-08-20T07:10:41.433Z,21.30
2022-08-20T07:11:41.415Z,21.30
2022-08-20T07:12:41.419Z,21.40
2022-08-20T07:13:41.402Z,21.40
2022-08-20T07:14:41.417Z,21.39
2022-08-20T07:15:41.372Z,21.36
2022-08-20T07:16:41.359Z,21.42
2022-08-20T07:17:41.350Z,21.45
2022-08-20T07:18:41.355Z,21.39
2022-08-20T07:19:41.355Z,21.48
2022-08-20T07:20:41.319Z,21.57
2022-08-20T07:21:41.304Z,21.61
2022-08-20T07:22:41.323Z,21.58
2022-08-20T07:23:41.282Z,21.70
2022-08-20T07:24:44.023Z,21.43
2022-08-20T07:25:41.274Z,21.46
2022-08-20T07:26:41.267Z,21.43
2022-08-20T07:27:41.241Z,21.43
2022-08-20T07:28:41.234Z,21.42
2022-08-20T07:29:41.251Z,21.45
2022-08-20T07:30:56.940Z,21.48
2022-08-20T07:31:42.333Z,21.45
2022-08-20T07:32:43.474Z,21.42
2022-08-20T07:33:41.179Z,21.48
2022-08-20T07:34:44.697Z,21.51
2022-08-20T07:35:41.203Z,21.61
2022-08-20T07:36:41.152Z,21.61
2022-08-20T07:37:41.130Z,21.75
2022-08-20T07:38:41.117Z,21.96
2022-08-20T07:39:41.140Z,22.04
2022-08-20T07:40:41.094Z,22.17
2022-08-20T07:41:41.134Z,22.35
2022-08-20T07:42:41.100Z,22.45
2022-08-20T07:43:41.068Z,22.50
2022-08-20T07:44:41.060Z,22.54
2022-08-20T07:45:41.055Z,22.73
2022-08-20T07:46:41.036Z,22.72
2022-08-20T07:47:41.015Z,22.81
2022-08-20T07:48:41.010Z,22.75
2022-08-20T07:49:41.024Z,22.73
2022-08-20T07:50:41.008Z,22.68
2022-08-20T07:51:40.974Z,22.69
2022-08-20T07:52:40.997Z,22.78
2022-08-20T07:53:40.952Z,22.73
2022-08-20T07:54:40.943Z,22.66
2022-08-20T07:55:40.929Z,22.62
2022-08-20T07:56:42.984Z,22.54
2022-08-20T07:57:40.902Z,22.47
2022-08-20T07:58:40.936Z,22.50
2022-08-20T07:59:40.883Z,22.55
2022-08-20T08:00:40.921Z,22.65
2022-08-20T08:01:40.881Z,22.73
2022-08-20T08:02:40.859Z,22.81
2022-08-20T08:03:49.611Z,22.98
2022-08-20T08:04:41.832Z,22.99
2022-08-20T08:05:40.816Z,23.03
2022-08-20T08:06:40.823Z,23.13
2022-08-20T08:07:40.798Z,23.23
2022-08-20T08:08:40.816Z,23.18
2022-08-20T08:09:40.782Z,23.36
2022-08-20T08:10:40.767Z,23.36
2022-08-20T08:11:47.904Z,23.43
2022-08-20T08:12:40.740Z,23.43
2022-08-20T08:13:40.728Z,23.39
2022-08-20T08:14:40.721Z,23.39
2022-08-20T08:15:40.705Z,23.32
2022-08-20T08:16:40.711Z,23.27
2022-08-20T08:17:40.685Z,23.21
2022-08-20T08:18:40.685Z,23.27
2022-08-20T08:19:40.663Z,23.47
2022-08-20T08:20:46.944Z,23.56
2022-08-20T08:21:40.654Z,23.65
2022-08-20T08:22:40.660Z,23.84
2022-08-20T08:23:40.619Z,23.91
2022-08-20T08:24:40.615Z,23.99
2022-08-20T08:25:40.605Z,23.84
2022-08-20T08:26:40.602Z,23.83
2022-08-20T08:27:40.593Z,23.74
2022-08-20T08:28:40.581Z,23.71
2022-08-20T08:29:40.551Z,23.55
2022-08-20T08:30:40.544Z,23.34
2022-08-20T08:31:40.561Z,23.24
2022-08-20T08:32:40.526Z,23.15
2022-08-20T08:33:40.528Z,23.10
2022-08-20T08:34:40.501Z,23.15
2022-08-20T08:35:41.440Z,22.93
2022-08-20T08:36:40.509Z,22.88
2022-08-20T08:37:40.469Z,22.83
2022-08-20T08:38:40.466Z,22.76
2022-08-20T08:39:40.514Z,22.78
2022-08-20T08:40:40.440Z,22.63
2022-08-20T08:41:40.445Z,22.70
2022-08-20T08:42:43.262Z,22.84
2022-08-20T08:43:40.402Z,22.90
2022-08-20T08:44:40.401Z,23.10
2022-08-20T08:45:40.376Z,23.15
2022-08-20T08:46:40.387Z,23.25
2022-08-20T08:47:40.373Z,23.41
2022-08-20T08:48:40.353Z,23.59
2022-08-20T08:49:40.334Z,23.80
2022-08-20T08:50:53.164Z,23.95
2022-08-20T08:51:41.308Z,24.18
2022-08-20T08:52:40.356Z,24.21
2022-08-20T08:53:40.292Z,24.17
2022-08-20T08:54:40.285Z,24.24
2022-08-20T08:55:40.270Z,24.40
2022-08-20T08:56:40.261Z,24.45
2022-08-20T08:57:40.256Z,24.40
2022-08-20T08:58:40.243Z,24.40
2022-08-20T08:59:56.216Z,24.30
2022-08-20T09:00:48.766Z,24.17
2022-08-20T09:01:55.423Z,24.10
2022-08-20T09:02:41.293Z,23.87
2022-08-20T09:03:40.185Z,23.73
2022-08-20T09:04:40.176Z,23.78
2022-08-20T09:05:40.160Z,23.91
2022-08-20T09:06:40.152Z,23.91
2022-08-20T09:07:40.152Z,24.02
2022-08-20T09:08:40.142Z,24.16
2022-08-20T09:09:40.132Z,24.21
2022-08-20T09:10:40.107Z,24.29
2022-08-20T09:11:40.096Z,24.53
2022-08-20T09:12:42.408Z,24.51
2022-08-20T09:13:41.093Z,24.60
2022-08-20T09:14:40.078Z,24.65
2022-08-20T09:15:40.071Z,24.74
2022-08-20T09:16:52.462Z,24.86
2022-08-20T09:17:41.034Z,24.91
2022-08-20T09:18:40.055Z,24.96
2022-08-20T09:19:40.009Z,25.08
2022-08-20T09:20:40.011Z,25.22
2022-08-20T09:21:39.984Z,25.48
2022-08-20T09:22:39.971Z,25.63
2022-08-20T09:23:39.982Z,25.55
2022-08-20T09:24:39.966Z,25.55
2022-08-20T09:25:39.950Z,25.59
2022-08-20T09:26:39.931Z,25.44
2022-08-20T09:27:39.924Z,25.17
2022-08-20T09:28:39.951Z,24.99
2022-08-20T09:29:39.903Z,24.81
2022-08-20T09:30:39.886Z,24.69
2022-08-20T09:31:39.884Z,24.60
2022-08-20T09:32:39.867Z,24.45
2022-08-20T09:33:39.872Z,24.43
2022-08-20T09:34:39.847Z,24.24
2022-08-20T09:35:39.840Z,24.30
2022-08-20T09:36:39.824Z,24.35
2022-08-20T09:37:39.832Z,24.36
2022-08-20T09:38:39.818Z,24.42
2022-08-20T09:39:39.827Z,24.60
2022-08-20T09:40:39.801Z,24.61
2022-08-20T09:41:39.771Z,24.69
2022-08-20T09:42:41.567Z,24.76
2022-08-20T09:43:39.763Z,24.55
2022-08-20T09:44:39.734Z,24.47
2022-08-20T09:45:39.733Z,24.43
2022-08-20T09:46:39.723Z,24.32
2022-08-20T09:47:43.855Z,24.18
2022-08-20T09:48:40.699Z,24.03
2022-08-20T09:49:39.719Z,23.83
2022-08-20T09:50:39.671Z,23.92
2022-08-20T09:51:39.662Z,23.96
2022-08-20T09:52:40.839Z,24.16
2022-08-20T09:53:39.643Z,24.36
2022-08-20T09:54:39.639Z,24.42
2022-08-20T09:55:40.635Z,24.55
2022-08-20T09:56:39.605Z,24.84
2022-08-20T09:57:39.598Z,25.07
2022-08-20T09:58:39.580Z,25.08
2022-08-20T09:59:39.589Z,25.08
2022-08-20T10:00:39.578Z,25.16
2022-08-20T10:01:39.612Z,25.26
2022-08-20T10:02:39.544Z,25.36
2022-08-20T10:03:41.873Z,25.32
2022-08-20T10:04:39.541Z,25.28
2022-08-20T10:05:39.513Z,25.44
2022-08-20T10:06:39.503Z,25.31
2022-08-20T10:07:39.506Z,25.40
2022-08-20T10:08:39.479Z,25.53
2022-08-20T10:09:39.998Z,25.54
2022-08-20T10:10:39.451Z,25.54
2022-08-20T10:11:39.452Z,25.65
2022-08-20T10:12:39.458Z,25.78
2022-08-20T10:13:39.429Z,25.88
2022-08-20T10:14:39.414Z,25.84
2022-08-20T10:15:39.411Z,25.69
2022-08-20T10:16:39.425Z,25.53
2022-08-20T10:17:39.403Z,25.40
2022-08-20T10:18:39.365Z,25.23
2022-08-20T10:19:39.373Z,25.06
2022-08-20T10:20:39.360Z,25.23
2022-08-20T10:21:39.518Z,25.13
2022-08-20T10:22:39.343Z,24.99
2022-08-20T10:23:39.322Z,24.96
2022-08-20T10:24:39.305Z,24.86
2022-08-20T10:25:39.304Z,24.80
2022-08-20T10:26:39.276Z,24.73
2022-08-20T10:27:39.268Z,24.78
2022-08-20T10:28:39.276Z,24.84
2022-08-20T10:29:39.257Z,24.89
2022-08-20T10:30:39.244Z,24.99
2022-08-20T10:31:39.321Z,25.14
2022-08-20T10:32:39.220Z,25.10
2022-08-20T10:33:39.210Z,25.08
2022-08-20T10:34:39.193Z,24.93
2022-08-20T10:35:39.196Z,24.93
2022-08-20T10:36:39.181Z,25.04
2022-08-20T10:37:39.199Z,25.11
2022-08-20T10:38:39.151Z,25.10
2022-08-20T10:39:39.168Z,25.08
2022-08-20T10:40:39.135Z,25.07
2022-08-20T10:41:39.291Z,24.88
2022-08-20T10:42:42.427Z,24.73
2022-08-20T10:43:39.118Z,24.61
2022-08-20T10:44:39.109Z,24.48
2022-08-20T10:45:39.093Z,24.40
2022-08-20T10:46:39.110Z,24.42
2022-08-20T10:47:39.058Z,24.42
2022-08-20T10:48:39.042Z,24.21
2022-08-20T10:49:39.056Z,24.28
2022-08-20T10:50:39.024Z,24.24
2022-08-20T10:51:39.028Z,24.16
2022-08-20T10:52:39.032Z,24.17
2022-08-20T10:53:39.006Z,24.16
2022-08-20T10:54:38.983Z,24.17
2022-08-20T10:55:38.983Z,24.16
2022-08-20T10:56:38.961Z,24.10
2022-08-20T10:57:38.953Z,24.06
2022-08-20T10:58:40.062Z,24.01
2022-08-20T10:59:38.969Z,24.10
2022-08-20T11:00:38.940Z,24.05
2022-08-20T11:01:38.952Z,24.03
2022-08-20T11:02:38.888Z,24.05
2022-08-20T11:03:38.892Z,23.99
2022-08-20T11:04:38.890Z,23.96
2022-08-20T11:05:38.874Z,23.98
2022-08-20T11:06:38.844Z,23.88
2022-08-20T11:07:50.757Z,23.84
2022-08-20T11:08:39.844Z,23.84
2022-08-20T11:09:38.819Z,23.83
2022-08-20T11:10:38.833Z,23.91
2022-08-20T11:11:38.795Z,23.88
2022-08-20T11:12:38.779Z,23.84
2022-08-20T11:13:38.780Z,23.71
2022-08-20T11:14:38.755Z,23.77
2022-08-20T11:15:38.775Z,23.77
2022-08-20T11:16:38.738Z,23.78
2022-08-20T11:17:38.730Z,23.80
2022-08-20T11:18:38.743Z,23.83
2022-08-20T11:19:38.701Z,23.83
2022-08-20T11:20:38.712Z,23.87
2022-08-20T11:21:38.694Z,23.87
2022-08-20T11:22:38.679Z,23.80
2022-08-20T11:23:38.673Z,23.81
2022-08-20T11:24:38.661Z,23.74
2022-08-20T11:25:38.639Z,23.69
2022-08-20T11:26:38.620Z,23.69
2022-08-20T11:27:38.639Z,23.68
2022-08-20T11:28:38.604Z,23.68
2022-08-20T11:29:38.615Z,23.69
2022-08-20T11:30:38.578Z,23.69
2022-08-20T11:31:38.574Z,23.69
2022-08-20T11:32:38.586Z,23.83
2022-08-20T11:33:38.552Z,23.83
2022-08-20T11:34:38.559Z,23.73
2022-08-20T11:35:48.268Z,23.78
2022-08-20T11:36:39.523Z,23.77
2022-08-20T11:37:38.517Z,23.88
2022-08-20T11:38:38.492Z,23.81
2022-08-20T11:39:41.673Z,23.78
2022-08-20T11:40:38.478Z,23.66
2022-08-20T11:41:38.470Z,23.65
2022-08-20T11:42:53.221Z,23.62
2022-08-20T11:43:39.441Z,23.51
2022-08-20T11:44:38.436Z,23.56
2022-08-20T11:45:38.439Z,23.54
2022-08-20T11:46:38.416Z,23.56
2022-08-20T11:47:38.396Z,23.54
2022-08-20T11:48:38.419Z,23.58
2022-08-20T11:49:38.379Z,23.66
2022-08-20T11:50:38.364Z,23.66
2022-08-20T11:51:49.037Z,23.62
2022-08-20T11:52:39.340Z,23.69
2022-08-20T11:53:38.329Z,23.73
2022-08-20T11:54:38.318Z,23.78
2022-08-20T11:55:38.674Z,23.73
2022-08-20T11:56:38.310Z,23.78
2022-08-20T11:57:38.287Z,23.80
2022-08-20T11:58:38.296Z,23.71
2022-08-20T11:59:38.263Z,23.66
2022-08-20T12:00:38.253Z,23.69
2022-08-20T12:01:38.240Z,23.81
2022-08-20T12:02:38.314Z,23.86
2022-08-20T12:03:38.244Z,23.92
2022-08-20T12:04:38.209Z,23.98
2022-08-20T12:05:38.198Z,24.03
2022-08-20T12:06:38.186Z,24.14
2022-08-20T12:07:38.176Z,24.28
2022-08-20T12:08:38.176Z,24.33
2022-08-20T12:09:46.496Z,24.35
2022-08-20T12:10:39.141Z,24.50
2022-08-20T12:11:38.130Z,24.65
2022-08-20T12:12:38.136Z,24.88
2022-08-20T12:13:48.146Z,25.10
2022-08-20T12:14:39.096Z,25.33
2022-08-20T12:15:38.090Z,25.41
2022-08-20T12:16:38.082Z,25.55
2022-08-20T12:17:38.062Z,25.51
2022-08-20T12:18:38.069Z,25.54
2022-08-20T12:19:38.046Z,25.36
2022-08-20T12:20:38.049Z,25.36
2022-08-20T12:21:38.029Z,25.38
2022-08-20T12:22:38.011Z,25.25
2022-08-20T12:23:38.012Z,25.16
2022-08-20T12:24:37.990Z,25.13
2022-08-20T12:25:37.984Z,25.07
2022-08-20T12:26:37.967Z,24.96
2022-08-20T12:27:37.959Z,24.91
2022-08-20T12:28:37.951Z,24.91
2022-08-20T12:29:37.969Z,24.88
2022-08-20T12:30:37.946Z,24.92
2022-08-20T12:31:37.920Z,24.84
2022-08-20T12:32:37.900Z,24.74
2022-08-20T12:33:37.909Z,24.70
2022-08-20T12:34:37.904Z,24.68
2022-08-20T12:35:37.877Z,24.58
2022-08-20T12:36:37.860Z,24.57
2022-08-20T12:37:37.858Z,24.54
2022-08-20T12:38:37.838Z,24.57
2022-08-20T12:39:37.918Z,24.50
2022-08-20T12:40:37.823Z,24.55
2022-08-20T12:41:37.802Z,24.57
2022-08-20T12:42:37.811Z,24.57
2022-08-20T12:43:37.796Z,24.61
2022-08-20T12:44:37.784Z,24.66
2022-08-20T12:45:37.768Z,24.66
2022-08-20T12:46:37.749Z,24.68
2022-08-20T12:47:37.741Z,24.73
2022-08-20T12:48:37.730Z,24.85
2022-08-20T12:49:37.729Z,24.86
2022-08-20T12:50:37.707Z,24.86
2022-08-20T12:51:37.700Z,24.93
2022-08-20T12:52:37.691Z,24.99